Time;durP1;ratioP1;P1;durP2;ratioP2;P2;SDS_P1;SDS_P2;PMS_P1;PMS_P2;Temp;Humidity;BMP_temperature;BMP_pressure;BME280_temperature;BME280_humidity;BME280_pressure;Samples;Min_cycle;Max_cycle;Signal;HPM_P1;HPM_P2
2022/06/14 00:01:20;;;;;;;;;;;12.00;99.90;;;;;;5113269;28;19920;-67
2022/06/14 00:03:45;;;;;;;;;;;12.10;99.90;;;;;;5113333;28;19998;-67
2022/06/14 00:06:14;;;;;;;;;;;12.10;99.90;;;;;;5113314;28;19959;-67
2022/06/14 00:08:40;;;;;;;;;;;12.00;99.90;;;;;;5111496;28;19982;-67
2022/06/14 00:11:08;;;;;;;;;;;11.90;99.90;;;;;;5112401;28;19919;-68
2022/06/14 00:13:33;;;;;;;;;;;11.80;99.90;;;;;;5113550;28;19920;-67
2022/06/14 00:15:59;;;;;;;;;;;11.80;99.90;;;;;;5113624;28;19924;-67
2022/06/14 00:18:24;;;;;;;;;;;11.80;99.90;;;;;;5113153;28;19935;-67
2022/06/14 00:20:50;;;;;;;;;;;11.80;99.90;;;;;;5113208;28;19964;-68
2022/06/14 00:23:16;;;;;;;;;;;11.80;99.90;;;;;;5113159;28;20006;-67
2022/06/14 00:25:43;;;;;;;;;;;11.80;99.90;;;;;;5112984;28;19920;-67
2022/06/14 00:28:10;;;;;;;;;;;11.60;99.90;;;;;;5112791;28;19931;-67
2022/06/14 00:30:36;;;;;;;;;;;11.60;99.90;;;;;;5112700;28;19923;-67
2022/06/14 00:33:02;;;;;;;;;;;11.60;99.90;;;;;;5112882;28;19923;-67
2022/06/14 00:35:28;;;;;;;;;;;11.50;99.90;;;;;;5112739;28;20406;-67
2022/06/14 00:37:53;;;;;;;;;;;11.40;99.90;;;;;;5112702;28;19920;-67
2022/06/14 00:40:22;;;;;;;;;;;11.40;99.90;;;;;;5112310;28;20450;-67
2022/06/14 00:42:47;;;;;;;;;;;11.30;99.90;;;;;;5112704;28;19919;-67
2022/06/14 00:45:13;;;;;;;;;;;11.20;99.90;;;;;;5112601;28;19999;-67
2022/06/14 00:47:43;;;;;;;;;;;11.20;99.90;;;;;;5111300;28;19928;-67
2022/06/14 00:50:15;;;;;;;;;;;11.20;99.90;;;;;;5112177;28;20019;-67
2022/06/14 00:53:01;;;;;;;;;;;11.20;99.90;;;;;;5112376;28;20019;-66
2022/06/14 00:55:33;;;;;;;;;;;11.10;99.90;;;;;;5111828;28;19920;-67
2022/06/14 00:58:01;;;;;;;;;;;11.10;99.90;;;;;;5112425;28;19926;-67
2022/06/14 01:00:30;;;;;;;;;;;11.10;99.90;;;;;;5112120;28;19924;-67
2022/06/14 01:02:58;;;;;;;;;;;11.20;99.90;;;;;;5112147;28;20338;-67
2022/06/14 01:06:05;;;;;;;;;;;11.20;99.90;;;;;;5112070;28;19970;-66
2022/06/14 01:08:16;;;;;;;;;;;11.10;99.90;;;;;;5111987;28;19931;-67
2022/06/14 01:10:47;;;;;;;;;;;11.10;99.90;;;;;;5112126;28;19922;-68
2022/06/14 01:13:13;;;;;;;;;;;11.20;99.90;;;;;;5112046;28;19919;-67
2022/06/14 01:15:39;;;;;;;;;;;11.10;99.90;;;;;;5112078;28;20641;-67
2022/06/14 01:18:09;;;;;;;;;;;11.20;99.90;;;;;;5093617;28;19962;-67
2022/06/14 01:20:35;;;;;;;;;;;11.10;99.90;;;;;;5111863;28;19976;-67
2022/06/14 01:23:01;;;;;;;;;;;11.00;99.90;;;;;;5111868;28;20014;-67
2022/06/14 01:25:29;;;;;;;;;;;11.00;99.90;;;;;;5111967;28;19927;-67
2022/06/14 01:27:55;;;;;;;;;;;11.10;99.90;;;;;;5111887;28;19935;-67
2022/06/14 01:30:26;;;;;;;;;;;11.10;99.90;;;;;;5111566;28;19919;-67
2022/06/14 01:33:02;;;;;;;;;;;11.10;99.90;;;;;;5112037;28;19923;-67
2022/06/14 01:35:32;;;;;;;;;;;11.00;99.90;;;;;;5111887;28;20424;-67
2022/06/14 01:37:58;;;;;;;;;;;11.10;99.90;;;;;;5112168;28;19924;-67
2022/06/14 01:40:42;;;;;;;;;;;11.00;99.90;;;;;;5111838;28;19954;-67
2022/06/14 01:43:07;;;;;;;;;;;11.00;99.90;;;;;;5111855;28;20046;-67
2022/06/14 01:45:41;;;;;;;;;;;11.00;99.90;;;;;;5112108;28;19962;-67
2022/06/14 01:48:07;;;;;;;;;;;10.90;99.90;;;;;;5112118;28;19928;-67
2022/06/14 01:53:47;;;;;;;;;;;10.80;99.90;;;;;;5111512;28;19927;-67
2022/06/14 01:56:22;;;;;;;;;;;10.80;99.90;;;;;;5111764;28;20044;-67
2022/06/14 01:58:47;;;;;;;;;;;10.80;99.90;;;;;;5109797;28;19931;-67
2022/06/14 02:01:31;;;;;;;;;;;10.70;99.90;;;;;;5111549;28;19920;-67
2022/06/14 02:06:54;;;;;;;;;;;10.80;99.90;;;;;;5111672;28;19920;-67
2022/06/14 02:09:32;;;;;;;;;;;10.70;99.90;;;;;;5111212;28;20392;-67
2022/06/14 02:12:00;;;;;;;;;;;10.70;99.90;;;;;;5110087;28;19930;-67
2022/06/14 02:14:37;;;;;;;;;;;10.70;99.90;;;;;;5112521;28;19924;-67
2022/06/14 02:17:06;;;;;;;;;;;10.70;99.90;;;;;;5115561;28;19945;-67
2022/06/14 02:19:35;;;;;;;;;;;10.80;99.90;;;;;;5115109;28;19920;-67
2022/06/14 02:22:22;;;;;;;;;;;10.80;99.90;;;;;;5115436;28;19970;-67
2022/06/14 02:24:49;;;;;;;;;;;10.80;99.90;;;;;;5115262;28;19927;-67
2022/06/14 02:27:19;;;;;;;;;;;10.80;99.90;;;;;;5115344;28;19928;-67
2022/06/14 02:29:47;;;;;;;;;;;10.80;99.90;;;;;;5115069;28;19923;-67
2022/06/14 02:32:19;;;;;;;;;;;10.80;99.90;;;;;;5115300;28;20307;-66
2022/06/14 02:34:48;;;;;;;;;;;10.80;99.90;;;;;;5115077;28;20042;-67
2022/06/14 02:37:14;;;;;;;;;;;10.80;99.90;;;;;;5114919;28;20018;-67
2022/06/14 02:39:44;;;;;;;;;;;10.80;99.90;;;;;;5114724;28;19974;-67
2022/06/14 02:42:18;;;;;;;;;;;10.70;99.90;;;;;;5113895;28;20276;-67
2022/06/14 02:45:10;;;;;;;;;;;10.80;99.90;;;;;;5114837;28;20372;-67
2022/06/14 02:47:49;;;;;;;;;;;10.70;99.90;;;;;;5108468;28;19924;-67
2022/06/14 02:50:20;;;;;;;;;;;10.70;99.90;;;;;;5114476;28;20406;-67
2022/06/14 02:52:45;;;;;;;;;;;10.70;99.90;;;;;;5114876;28;19955;-67
2022/06/14 02:55:14;;;;;;;;;;;10.70;99.90;;;;;;5114747;28;20423;-67
2022/06/14 02:57:46;;;;;;;;;;;10.70;99.90;;;;;;5114691;27;19967;-67
2022/06/14 03:00:13;;;;;;;;;;;10.80;99.90;;;;;;5114106;28;19986;-67
2022/06/14 03:02:44;;;;;;;;;;;10.80;99.90;;;;;;5114751;28;19919;-67
2022/06/14 03:05:29;;;;;;;;;;;10.80;99.90;;;;;;5114640;28;19975;-67
2022/06/14 03:07:57;;;;;;;;;;;10.80;99.90;;;;;;5114477;28;19928;-67
2022/06/14 03:10:25;;;;;;;;;;;10.80;99.90;;;;;;5113980;27;19920;-67
2022/06/14 03:13:02;;;;;;;;;;;10.80;99.90;;;;;;5114507;28;19920;-67
2022/06/14 03:15:36;;;;;;;;;;;10.80;99.90;;;;;;5112237;28;20381;-67
2022/06/14 03:18:25;;;;;;;;;;;10.70;99.90;;;;;;5111570;28;19960;-67
2022/06/14 03:20:51;;;;;;;;;;;10.70;99.90;;;;;;5113148;28;20010;-67
2022/06/14 03:23:20;;;;;;;;;;;10.60;99.90;;;;;;5113536;28;20311;-67
2022/06/14 03:25:54;;;;;;;;;;;10.70;99.90;;;;;;5112097;28;19955;-67
2022/06/14 03:28:19;;;;;;;;;;;10.80;99.90;;;;;;5113976;28;19928;-67
2022/06/14 03:31:11;;;;;;;;;;;10.80;99.90;;;;;;5113887;28;20032;-67
2022/06/14 03:33:37;;;;;;;;;;;10.70;99.90;;;;;;5109779;28;19978;-67
2022/06/14 03:36:04;;;;;;;;;;;10.60;99.90;;;;;;5114073;28;19967;-67
2022/06/14 03:38:35;;;;;;;;;;;10.50;99.90;;;;;;5113722;28;19923;-67
2022/06/14 03:41:01;;;;;;;;;;;10.50;99.90;;;;;;5113795;28;19971;-67
2022/06/14 03:43:26;;;;;;;;;;;10.50;99.90;;;;;;5113780;28;19963;-67
2022/06/14 03:45:57;;;;;;;;;;;10.40;99.90;;;;;;5112238;28;19973;-67
2022/06/14 03:48:23;;;;;;;;;;;10.20;99.90;;;;;;5113496;28;20384;-67
2022/06/14 03:50:54;;;;;;;;;;;10.30;99.90;;;;;;5113692;28;19935;-67
2022/06/14 03:53:38;;;;;;;;;;;10.50;99.90;;;;;;5113532;28;20422;-67
2022/06/14 03:56:13;;;;;;;;;;;10.60;99.90;;;;;;5113508;28;20342;-67
2022/06/14 03:58:58;;;;;;;;;;;10.70;99.90;;;;;;5113040;28;19920;-67
2022/06/14 04:01:26;;;;;;;;;;;10.70;99.90;;;;;;5113630;28;20014;-67
2022/06/14 04:04:07;;;;;;;;;;;10.70;99.90;;;;;;5113370;27;19966;-67
2022/06/14 04:06:50;;;;;;;;;;;10.70;99.90;;;;;;5113334;28;19965;-67
2022/06/14 04:09:15;;;;;;;;;;;10.80;99.90;;;;;;5113116;28;19924;-67
2022/06/14 04:11:41;;;;;;;;;;;10.90;99.90;;;;;;5113289;28;20273;-67
2022/06/14 04:14:19;;;;;;;;;;;10.90;99.90;;;;;;5113277;28;19924;-67
2022/06/14 04:16:56;;;;;;;;;;;11.00;99.90;;;;;;5113164;28;19976;-67
2022/06/14 04:19:24;;;;;;;;;;;11.00;99.90;;;;;;5112626;28;20532;-67
2022/06/14 04:21:55;;;;;;;;;;;11.00;99.90;;;;;;5112967;28;20449;-68
2022/06/14 04:24:31;;;;;;;;;;;10.80;99.90;;;;;;5111477;28;20380;-67
2022/06/14 04:27:23;;;;;;;;;;;10.80;99.90;;;;;;5112806;28;20441;-67
2022/06/14 04:30:04;;;;;;;;;;;10.80;99.90;;;;;;5108446;28;19927;-67
2022/06/14 04:32:36;;;;;;;;;;;10.80;99.90;;;;;;5112948;28;20014;-67
2022/06/14 04:35:07;;;;;;;;;;;10.90;99.90;;;;;;5112901;28;19919;-67
2022/06/14 04:37:38;;;;;;;;;;;11.00;99.90;;;;;;5112536;28;19942;-67
2022/06/14 04:40:15;;;;;;;;;;;11.10;99.90;;;;;;5111387;28;20364;-67
2022/06/14 04:42:40;;;;;;;;;;;11.20;99.90;;;;;;5112559;28;20391;-67
2022/06/14 04:45:17;;;;;;;;;;;11.30;99.90;;;;;;5111268;28;19930;-67
2022/06/14 04:47:46;;;;;;;;;;;11.50;99.90;;;;;;5112642;28;19959;-67
2022/06/14 04:50:15;;;;;;;;;;;11.70;99.90;;;;;;5112302;28;19927;-67
2022/06/14 04:52:52;;;;;;;;;;;11.80;99.90;;;;;;5112173;28;19943;-67
2022/06/14 04:55:37;;;;;;;;;;;11.80;99.90;;;;;;5112569;28;19924;-67
2022/06/14 04:58:07;;;;;;;;;;;11.90;99.90;;;;;;5111698;28;20011;-68
2022/06/14 05:00:39;;;;;;;;;;;11.90;99.90;;;;;;5111993;28;20376;-67
2022/06/14 05:03:07;;;;;;;;;;;12.10;99.90;;;;;;5112009;28;20375;-67
2022/06/14 05:05:36;;;;;;;;;;;12.10;99.90;;;;;;5112326;28;20327;-67
2022/06/14 05:08:01;;;;;;;;;;;12.20;99.90;;;;;;5111981;28;20449;-67
2022/06/14 05:10:32;;;;;;;;;;;12.40;99.90;;;;;;5110556;28;19958;-67
2022/06/14 05:12:58;;;;;;;;;;;12.60;99.90;;;;;;5112050;28;20007;-67
2022/06/14 05:15:44;;;;;;;;;;;12.60;99.90;;;;;;5111919;28;20474;-67
2022/06/14 05:18:13;;;;;;;;;;;12.60;99.90;;;;;;5112230;28;19931;-67
2022/06/14 05:20:41;;;;;;;;;;;12.70;99.90;;;;;;5111853;28;19976;-67
2022/06/14 05:23:11;;;;;;;;;;;12.80;99.90;;;;;;5111837;28;20411;-67
2022/06/14 05:25:55;;;;;;;;;;;12.90;99.90;;;;;;5112005;28;20024;-67
2022/06/14 05:28:31;;;;;;;;;;;13.00;99.90;;;;;;5111869;28;19958;-67
2022/06/14 05:31:05;;;;;;;;;;;13.20;99.90;;;;;;5112083;28;19970;-67
2022/06/14 05:33:38;;;;;;;;;;;13.40;99.90;;;;;;5111865;28;19920;-67
2022/06/14 05:36:11;;;;;;;;;;;13.40;99.90;;;;;;5111771;28;19931;-67
2022/06/14 05:38:47;;;;;;;;;;;13.50;99.90;;;;;;5111650;28;19963;-67
2022/06/14 05:41:16;;;;;;;;;;;13.60;99.90;;;;;;5112140;28;19926;-67
2022/06/14 05:43:42;;;;;;;;;;;13.70;99.90;;;;;;5111597;28;20332;-67
2022/06/14 05:46:10;;;;;;;;;;;13.90;99.90;;;;;;5111748;28;20445;-68
2022/06/14 05:48:41;;;;;;;;;;;14.00;99.90;;;;;;5111344;28;20163;-67
2022/06/14 05:51:10;;;;;;;;;;;13.90;99.90;;;;;;5116197;28;19928;-67
2022/06/14 05:53:35;;;;;;;;;;;14.10;99.90;;;;;;5116085;28;19920;-67
2022/06/14 05:56:08;;;;;;;;;;;14.20;99.90;;;;;;5115983;28;19930;-67
2022/06/14 05:58:49;;;;;;;;;;;14.30;99.90;;;;;;5115516;28;19959;-67
2022/06/14 06:01:16;;;;;;;;;;;14.40;99.90;;;;;;5115726;28;19927;-67
2022/06/14 06:03:46;;;;;;;;;;;14.40;99.90;;;;;;5115926;28;19952;-67
2022/06/14 06:06:22;;;;;;;;;;;14.50;99.90;;;;;;5115792;28;19924;-67
2022/06/14 06:08:50;;;;;;;;;;;14.50;99.90;;;;;;5114125;28;19932;-67
2022/06/14 06:11:16;;;;;;;;;;;14.60;99.90;;;;;;5115539;28;20414;-67
2022/06/14 06:13:50;;;;;;;;;;;14.70;99.90;;;;;;5115418;28;19920;-67
2022/06/14 06:16:34;;;;;;;;;;;15.10;99.90;;;;;;5115653;28;19920;-67
2022/06/14 06:19:02;;;;;;;;;;;15.30;99.90;;;;;;5115213;28;19967;-67
2022/06/14 06:21:44;;;;;;;;;;;15.20;99.90;;;;;;5115430;28;19942;-68
2022/06/14 06:24:19;;;;;;;;;;;15.20;99.90;;;;;;5115224;28;19924;-67
2022/06/14 06:26:47;;;;;;;;;;;15.20;99.90;;;;;;5115464;28;19920;-67
2022/06/14 06:29:18;;;;;;;;;;;15.40;99.90;;;;;;5115028;28;19966;-67
2022/06/14 06:31:45;;;;;;;;;;;15.50;99.90;;;;;;5115290;28;19920;-67
2022/06/14 06:34:13;;;;;;;;;;;15.60;99.90;;;;;;5115129;28;20368;-68
2022/06/14 06:36:47;;;;;;;;;;;15.80;99.90;;;;;;5114963;28;19920;-68
2022/06/14 06:39:30;;;;;;;;;;;15.60;99.90;;;;;;5115050;28;19925;-67
2022/06/14 06:42:00;;;;;;;;;;;15.40;99.90;;;;;;5113732;28;19965;-68
2022/06/14 06:44:44;;;;;;;;;;;15.70;99.90;;;;;;5113601;28;20026;-67
2022/06/14 06:47:10;;;;;;;;;;;15.80;99.90;;;;;;5114745;28;19966;-67
2022/06/14 06:49:45;;;;;;;;;;;15.90;99.90;;;;;;5114690;28;20368;-67
2022/06/14 06:52:12;;;;;;;;;;;16.00;99.90;;;;;;5114827;28;19920;-68
2022/06/14 06:54:42;;;;;;;;;;;16.10;99.90;;;;;;5113349;28;20040;-68
2022/06/14 06:57:10;;;;;;;;;;;16.20;99.90;;;;;;5114815;28;19946;-68
2022/06/14 06:59:40;;;;;;;;;;;16.30;99.90;;;;;;5114060;28;19920;-66
2022/06/14 07:02:16;;;;;;;;;;;16.50;99.90;;;;;;5114876;28;19973;-68
2022/06/14 07:07:31;;;;;;;;;;;16.50;99.90;;;;;;5114686;28;19927;-66
2022/06/14 07:10:14;;;;;;;;;;;16.50;99.90;;;;;;5114140;27;20387;-66
2022/06/14 07:12:55;;;;;;;;;;;16.50;99.90;;;;;;5114340;28;20482;-66
2022/06/14 07:15:26;;;;;;;;;;;16.60;99.90;;;;;;5114477;28;20227;-67
2022/06/14 07:18:10;;;;;;;;;;;16.70;99.90;;;;;;5114289;28;19980;-66
2022/06/14 07:20:54;;;;;;;;;;;16.60;99.90;;;;;;5114012;28;19994;-67
2022/06/14 07:23:23;;;;;;;;;;;16.60;99.90;;;;;;5114273;28;19924;-67
2022/06/14 07:25:48;;;;;;;;;;;16.50;99.90;;;;;;5114287;28;20302;-66
2022/06/14 07:28:13;;;;;;;;;;;16.60;99.90;;;;;;5112814;28;20014;-66
2022/06/14 07:30:49;;;;;;;;;;;16.50;99.90;;;;;;5113683;28;19970;-66
2022/06/14 07:33:16;;;;;;;;;;;16.70;99.90;;;;;;5114195;28;19927;-67
2022/06/14 07:35:58;;;;;;;;;;;16.90;99.90;;;;;;5113793;28;19974;-66
2022/06/14 07:38:24;;;;;;;;;;;16.80;99.90;;;;;;5113822;28;19942;-67
2022/06/14 07:40:49;;;;;;;;;;;16.80;99.90;;;;;;5113765;28;20401;-66
2022/06/14 07:43:24;;;;;;;;;;;16.90;99.90;;;;;;5113627;28;19920;-67
2022/06/14 07:45:49;;;;;;;;;;;16.70;99.90;;;;;;5114006;28;19920;-67
2022/06/14 07:48:17;;;;;;;;;;;16.70;99.90;;;;;;5113539;28;19924;-66
2022/06/14 07:51:05;;;;;;;;;;;16.90;99.90;;;;;;5113578;28;19924;-66
2022/06/14 07:53:34;;;;;;;;;;;16.90;99.90;;;;;;5112259;28;20411;-67
2022/06/14 07:56:12;;;;;;;;;;;16.90;99.90;;;;;;5113384;28;20384;-66
2022/06/14 07:58:46;;;;;;;;;;;16.80;99.90;;;;;;5113310;28;19926;-67
2022/06/14 08:01:16;;;;;;;;;;;16.50;99.90;;;;;;5113451;28;20449;-67
2022/06/14 08:04:03;;;;;;;;;;;16.60;99.90;;;;;;5113338;28;19972;-67
2022/06/14 08:06:31;;;;;;;;;;;16.90;99.90;;;;;;5113314;28;19920;-67
2022/06/14 08:08:58;;;;;;;;;;;17.10;99.90;;;;;;5113125;28;19928;-66
2022/06/14 08:11:28;;;;;;;;;;;17.30;99.90;;;;;;5112830;28;20380;-67
2022/06/14 08:13:59;;;;;;;;;;;17.40;99.90;;;;;;5113060;28;20341;-67
2022/06/14 08:16:25;;;;;;;;;;;17.30;99.90;;;;;;5113222;28;19924;-67
2022/06/14 08:18:54;;;;;;;;;;;17.30;99.90;;;;;;5112704;28;20367;-67
2022/06/14 08:21:19;;;;;;;;;;;17.30;99.90;;;;;;5113314;28;20428;-67
2022/06/14 08:23:57;;;;;;;;;;;17.10;99.90;;;;;;5113045;28;19920;-67
2022/06/14 08:26:32;;;;;;;;;;;17.20;99.90;;;;;;5113006;28;19920;-67
2022/06/14 08:29:05;;;;;;;;;;;17.30;99.90;;;;;;5112512;28;20384;-67
2022/06/14 08:31:37;;;;;;;;;;;17.30;99.90;;;;;;5113064;28;19927;-67
2022/06/14 08:34:07;;;;;;;;;;;17.40;99.90;;;;;;5112830;28;19980;-67
2022/06/14 08:36:39;;;;;;;;;;;17.90;99.90;;;;;;5112843;28;20287;-67
2022/06/14 08:39:09;;;;;;;;;;;17.70;99.90;;;;;;5112580;28;19981;-67
2022/06/14 08:41:47;;;;;;;;;;;17.60;99.90;;;;;;5111397;28;19924;-67
2022/06/14 08:44:15;;;;;;;;;;;17.40;99.90;;;;;;5112802;28;19919;-67
2022/06/14 08:46:44;;;;;;;;;;;17.40;99.90;;;;;;5112595;28;20444;-67
2022/06/14 08:49:21;;;;;;;;;;;17.40;99.90;;;;;;5112321;28;19967;-67
2022/06/14 08:52:08;;;;;;;;;;;17.30;99.90;;;;;;5112538;28;19970;-67
2022/06/14 08:55:00;;;;;;;;;;;17.30;99.90;;;;;;5112603;28;19967;-67
2022/06/14 08:57:44;;;;;;;;;;;17.40;99.90;;;;;;5075733;28;20407;-67
2022/06/14 09:00:12;;;;;;;;;;;17.60;99.90;;;;;;5111857;28;19953;-67
2022/06/14 09:02:52;;;;;;;;;;;17.70;99.90;;;;;;5112077;28;19926;-67
2022/06/14 09:05:28;;;;;;;;;;;17.90;99.90;;;;;;5112403;28;19924;-68
2022/06/14 09:08:12;;;;;;;;;;;18.00;99.90;;;;;;5112232;28;19950;-67
2022/06/14 09:10:52;;;;;;;;;;;18.00;99.90;;;;;;5112139;28;20065;-68
2022/06/14 09:13:26;;;;;;;;;;;18.00;99.90;;;;;;5112487;28;19920;-67
2022/06/14 09:15:54;;;;;;;;;;;17.90;99.90;;;;;;5112393;28;20394;-67
2022/06/14 09:18:38;;;;;;;;;;;17.80;99.90;;;;;;5112060;28;20038;-67
2022/06/14 09:21:04;;;;;;;;;;;17.90;99.90;;;;;;5112111;28;19919;-67
2022/06/14 09:23:29;;;;;;;;;;;17.80;99.90;;;;;;5111733;28;20409;-67
2022/06/14 09:25:54;;;;;;;;;;;17.70;99.90;;;;;;5112060;28;19931;-67
2022/06/14 09:28:32;;;;;;;;;;;17.80;99.90;;;;;;5111947;28;19924;-67
2022/06/14 09:31:11;;;;;;;;;;;17.70;99.90;;;;;;5112028;28;19920;-67
2022/06/14 09:33:43;;;;;;;;;;;17.90;99.90;;;;;;5111747;28;19924;-67
2022/06/14 09:36:14;;;;;;;;;;;18.10;99.90;;;;;;5112039;28;20299;-67
2022/06/14 09:38:42;;;;;;;;;;;18.30;99.90;;;;;;5111692;28;19924;-66
2022/06/14 09:41:11;;;;;;;;;;;18.40;99.90;;;;;;5111921;28;19919;-67
2022/06/14 09:43:55;;;;;;;;;;;18.20;99.90;;;;;;5111570;28;20065;-67
2022/06/14 09:46:39;;;;;;;;;;;18.10;99.90;;;;;;5111499;28;19920;-67
2022/06/14 09:49:28;;;;;;;;;;;18.30;99.90;;;;;;5111437;28;19923;-67
2022/06/14 09:51:56;;;;;;;;;;;18.30;99.90;;;;;;5111770;28;20030;-67
2022/06/14 09:54:32;;;;;;;;;;;18.20;99.90;;;;;;5111570;28;19919;-67
2022/06/14 09:57:03;;;;;;;;;;;18.20;99.90;;;;;;5111854;28;19927;-67
2022/06/14 09:59:47;;;;;;;;;;;18.50;99.90;;;;;;5111347;28;19927;-67
2022/06/14 10:02:22;;;;;;;;;;;18.50;99.90;;;;;;5111616;28;19927;-67
2022/06/14 10:04:50;;;;;;;;;;;18.70;99.90;;;;;;5111471;28;20329;-67
2022/06/14 10:07:34;;;;;;;;;;;19.00;99.90;;;;;;5111412;28;19923;-67
2022/06/14 10:10:08;;;;;;;;;;;19.00;99.90;;;;;;5111385;28;19978;-67
2022/06/14 10:12:39;;;;;;;;;;;18.90;99.90;;;;;;5111636;28;19960;-66
2022/06/14 10:15:18;;;;;;;;;;;18.70;99.90;;;;;;5111533;28;19924;-67
2022/06/14 10:17:54;;;;;;;;;;;18.50;99.90;;;;;;5111437;28;20383;-66
2022/06/14 10:20:37;;;;;;;;;;;18.50;99.90;;;;;;5110046;28;20380;-67
2022/06/14 10:23:11;;;;;;;;;;;18.80;99.90;;;;;;5111473;28;19920;-67
2022/06/14 10:28:55;;;;;;;;;;;18.80;99.90;;;;;;5111047;28;19931;-67
2022/06/14 10:31:47;;;;;;;;;;;18.70;99.90;;;;;;5111384;28;19919;-67
2022/06/14 10:34:17;;;;;;;;;;;18.60;99.90;;;;;;5111584;28;19920;-68
2022/06/14 10:37:04;;;;;;;;;;;18.50;99.90;;;;;;5114909;28;19924;-67
2022/06/14 10:39:48;;;;;;;;;;;18.70;99.90;;;;;;5115252;28;19931;-67
2022/06/14 10:42:22;;;;;;;;;;;18.70;99.90;;;;;;5115225;28;19926;-67
2022/06/14 10:45:03;;;;;;;;;;;18.60;99.90;;;;;;5114961;28;19919;-67
2022/06/14 10:47:41;;;;;;;;;;;18.60;99.90;;;;;;5114752;28;19927;-67
2022/06/14 10:50:24;;;;;;;;;;;18.60;99.90;;;;;;5114583;27;19930;-67
2022/06/14 10:52:56;;;;;;;;;;;18.70;99.90;;;;;;5114733;28;20340;-67
2022/06/14 10:55:33;;;;;;;;;;;18.70;99.90;;;;;;5114977;28;19919;-67
2022/06/14 10:58:32;;;;;;;;;;;18.90;99.90;;;;;;5114717;28;19959;-68
2022/06/14 11:01:16;;;;;;;;;;;18.90;99.90;;;;;;5114704;28;20284;-67
2022/06/14 11:04:14;;;;;;;;;;;18.70;99.90;;;;;;5114459;28;19927;-67
2022/06/14 11:06:39;;;;;;;;;;;18.70;99.90;;;;;;5069033;28;20007;-67
2022/06/14 11:09:05;;;;;;;;;;;18.70;99.90;;;;;;5114016;28;20022;-67
2022/06/14 11:11:44;;;;;;;;;;;18.70;99.90;;;;;;5114419;28;19920;-67
2022/06/14 11:14:22;;;;;;;;;;;18.70;99.90;;;;;;5114472;28;20276;-67
2022/06/14 11:17:07;;;;;;;;;;;18.70;99.90;;;;;;5114541;28;19924;-67
2022/06/14 11:19:35;;;;;;;;;;;18.60;99.90;;;;;;5113945;28;20399;-67
2022/06/14 11:22:17;;;;;;;;;;;18.80;99.90;;;;;;5114297;28;19976;-67
2022/06/14 11:25:01;;;;;;;;;;;18.80;99.90;;;;;;5112752;28;19926;-67
2022/06/14 11:27:36;;;;;;;;;;;19.00;99.90;;;;;;5113989;28;19931;-67
2022/06/14 11:30:01;;;;;;;;;;;19.20;99.90;;;;;;5113720;28;19923;-67
2022/06/14 11:32:44;;;;;;;;;;;19.00;99.90;;;;;;5113866;28;19943;-67
2022/06/14 11:35:28;;;;;;;;;;;19.00;99.90;;;;;;5114224;28;19923;-67
2022/06/14 11:38:00;;;;;;;;;;;19.20;99.90;;;;;;5114101;28;19927;-67
2022/06/14 11:40:27;;;;;;;;;;;18.90;99.90;;;;;;5113632;28;19923;-67
2022/06/14 11:42:53;;;;;;;;;;;18.90;99.90;;;;;;5113736;28;19931;-67
2022/06/14 11:45:37;;;;;;;;;;;18.90;99.90;;;;;;5113969;28;19923;-67
2022/06/14 11:48:13;;;;;;;;;;;18.90;99.90;;;;;;5112648;28;19988;-67
2022/06/14 11:50:53;;;;;;;;;;;18.80;99.90;;;;;;5113493;28;19920;-67
2022/06/14 11:53:42;;;;;;;;;;;18.80;99.90;;;;;;5113493;28;19919;-67
2022/06/14 11:56:17;;;;;;;;;;;18.80;99.90;;;;;;5113363;28;19927;-67
2022/06/14 11:58:53;;;;;;;;;;;18.80;99.90;;;;;;5113144;28;20024;-67
2022/06/14 12:01:34;;;;;;;;;;;18.70;99.90;;;;;;5113485;28;19920;-67
2022/06/14 12:04:11;;;;;;;;;;;18.80;99.90;;;;;;5113609;27;19926;-67
2022/06/14 12:06:42;;;;;;;;;;;19.00;99.90;;;;;;5113433;28;20068;-68
2022/06/14 12:09:13;;;;;;;;;;;19.10;99.90;;;;;;5113078;28;20012;-67
2022/06/14 12:11:44;;;;;;;;;;;19.10;99.90;;;;;;5112611;28;20390;-67
2022/06/14 12:14:29;;;;;;;;;;;19.00;99.90;;;;;;5113351;28;19924;-67
2022/06/14 12:16:57;;;;;;;;;;;19.10;99.90;;;;;;5113054;28;20375;-67
2022/06/14 12:19:30;;;;;;;;;;;19.30;99.90;;;;;;5112788;28;20461;-67
2022/06/14 12:27:42;;;;;;;;;;;19.40;99.90;;;;;;5112920;28;19932;-67
2022/06/14 12:30:09;;;;;;;;;;;19.40;99.90;;;;;;5111572;28;19919;-67
2022/06/14 12:32:50;;;;;;;;;;;19.40;99.90;;;;;;5112739;28;20675;-67
2022/06/14 12:35:17;;;;;;;;;;;19.40;99.90;;;;;;5112667;28;19931;-67
2022/06/14 12:37:45;;;;;;;;;;;19.40;99.90;;;;;;5112837;28;20014;-67
2022/06/14 12:40:25;;;;;;;;;;;19.40;99.90;;;;;;5112422;28;19919;-67
2022/06/14 12:42:57;;;;;;;;;;;19.40;99.90;;;;;;5112448;28;19927;-67
2022/06/14 12:45:25;;;;;;;;;;;19.40;99.90;;;;;;5112515;28;20402;-67
2022/06/14 12:48:05;;;;;;;;;;;19.60;99.90;;;;;;5112670;28;20527;-67
2022/06/14 12:50:36;;;;;;;;;;;19.50;99.30;;;;;;5112284;28;19920;-67
2022/06/14 12:53:16;;;;;;;;;;;19.50;99.90;;;;;;5112524;28;19923;-67
2022/06/14 12:55:49;;;;;;;;;;;19.50;99.90;;;;;;5112179;28;19919;-67
2022/06/14 12:58:18;;;;;;;;;;;19.60;99.90;;;;;;5111996;28;19946;-68
2022/06/14 13:01:02;;;;;;;;;;;19.80;99.90;;;;;;5112160;28;19966;-67
2022/06/14 13:03:34;;;;;;;;;;;19.60;99.90;;;;;;5112408;28;19963;-67
2022/06/14 13:06:18;;;;;;;;;;;19.50;99.90;;;;;;5112326;28;19920;-67
2022/06/14 13:09:02;;;;;;;;;;;19.60;99.90;;;;;;5111833;28;19958;-68
2022/06/14 13:11:42;;;;;;;;;;;19.70;99.90;;;;;;5112002;28;19965;-67
2022/06/14 13:14:13;;;;;;;;;;;20.00;99.90;;;;;;5110714;28;20395;-68
2022/06/14 13:17:07;;;;;;;;;;;20.00;98.40;;;;;;5112203;28;19920;-67
2022/06/14 13:19:37;;;;;;;;;;;19.90;98.00;;;;;;5108672;28;19919;-67
2022/06/14 13:22:08;;;;;;;;;;;19.80;97.90;;;;;;5110947;28;19920;-67
2022/06/14 13:24:36;;;;;;;;;;;19.80;98.60;;;;;;5112031;28;19920;-67
2022/06/14 13:27:07;;;;;;;;;;;19.80;97.90;;;;;;5112009;28;19927;-67
2022/06/14 13:29:42;;;;;;;;;;;19.90;98.60;;;;;;5111581;28;19923;-67
2022/06/14 13:32:27;;;;;;;;;;;19.90;98.80;;;;;;5111876;28;19963;-67
2022/06/14 13:35:00;;;;;;;;;;;19.90;99.60;;;;;;5111838;28;20006;-67
2022/06/14 13:37:46;;;;;;;;;;;19.90;99.90;;;;;;5112029;28;19923;-67
2022/06/14 13:40:19;;;;;;;;;;;19.90;99.90;;;;;;5111493;28;19942;-68
2022/06/14 13:42:58;;;;;;;;;;;20.00;99.20;;;;;;5111677;28;19924;-67
2022/06/14 13:45:27;;;;;;;;;;;20.10;99.70;;;;;;5111951;28;19998;-67
2022/06/14 13:47:55;;;;;;;;;;;19.90;99.50;;;;;;5111732;28;20303;-67
2022/06/14 13:50:20;;;;;;;;;;;19.90;99.60;;;;;;5111490;28;20288;-67
2022/06/14 13:52:49;;;;;;;;;;;19.90;99.00;;;;;;5111499;28;19930;-68
2022/06/14 13:55:14;;;;;;;;;;;19.90;98.90;;;;;;5111047;28;19965;-67
2022/06/14 13:57:47;;;;;;;;;;;19.80;99.10;;;;;;5111594;28;19927;-67
2022/06/14 14:00:18;;;;;;;;;;;19.70;99.30;;;;;;5111188;28;19926;-67
2022/06/14 14:03:12;;;;;;;;;;;19.70;98.40;;;;;;5111582;28;19926;-67
2022/06/14 14:05:42;;;;;;;;;;;19.70;98.40;;;;;;5110504;28;19985;-67
2022/06/14 14:08:17;;;;;;;;;;;19.80;99.10;;;;;;5111591;28;20345;-67
2022/06/14 14:10:49;;;;;;;;;;;19.80;98.80;;;;;;5113217;28;19920;-67
2022/06/14 14:13:24;;;;;;;;;;;19.70;99.00;;;;;;5115571;28;19959;-67
2022/06/14 14:15:54;;;;;;;;;;;19.80;98.50;;;;;;5115589;28;19923;-67
2022/06/14 14:18:24;;;;;;;;;;;19.70;98.60;;;;;;5115618;28;19931;-68
2022/06/14 14:20:59;;;;;;;;;;;19.60;97.50;;;;;;5115555;28;19920;-67
2022/06/14 14:24:00;;;;;;;;;;;19.50;97.60;;;;;;5115400;28;19924;-67
2022/06/14 14:26:27;;;;;;;;;;;19.50;97.80;;;;;;5032107;28;19925;-67
2022/06/14 14:29:06;;;;;;;;;;;19.60;97.60;;;;;;5098825;28;19924;-67
2022/06/14 14:31:37;;;;;;;;;;;19.50;97.70;;;;;;5115138;28;20398;-67
2022/06/14 14:34:09;;;;;;;;;;;19.50;99.20;;;;;;5115196;28;20326;-67
2022/06/14 14:36:50;;;;;;;;;;;19.60;99.90;;;;;;5115087;28;19965;-67
2022/06/14 14:39:30;;;;;;;;;;;19.70;97.30;;;;;;5115029;28;19924;-67
2022/06/14 14:42:02;;;;;;;;;;;19.70;97.80;;;;;;5115165;28;19976;-67
2022/06/14 14:44:34;;;;;;;;;;;19.80;97.40;;;;;;5113876;28;20132;-67
2022/06/14 14:47:04;;;;;;;;;;;19.70;97.00;;;;;;5115031;28;19920;-67
2022/06/14 14:49:40;;;;;;;;;;;19.80;98.10;;;;;;5114552;28;19930;-67
2022/06/14 14:52:06;;;;;;;;;;;19.90;97.20;;;;;;5115163;28;20015;-67
2022/06/14 14:54:42;;;;;;;;;;;20.00;98.80;;;;;;5115155;28;19958;-67
2022/06/14 14:57:26;;;;;;;;;;;20.10;98.20;;;;;;5114662;28;19920;-66
2022/06/14 14:59:56;;;;;;;;;;;20.10;98.80;;;;;;5114272;28;19955;-67
2022/06/14 15:05:41;;;;;;;;;;;20.20;98.90;;;;;;5103892;28;19930;-67
2022/06/14 15:08:21;;;;;;;;;;;20.20;98.90;;;;;;5114378;28;19939;-67
2022/06/14 15:10:51;;;;;;;;;;;20.20;99.10;;;;;;5114546;28;20303;-67
2022/06/14 15:13:30;;;;;;;;;;;20.30;98.70;;;;;;5114466;28;19946;-67